sensor_id;sensor_type;location;lat;lon;timestamp;P1;durP1;ratioP1;P2;durP2;ratioP2
253;SDS011;590;48.772;8.846;2023-02-01T00:00:55;1.27;;;1.17;;
253;SDS011;590;48.772;8.846;2023-02-01T00:03:23;1.10;;;1.00;;
253;SDS011;590;48.772;8.846;2023-02-01T00:05:55;1.00;;;0.90;;
253;SDS011;590;48.772;8.846;2023-02-01T00:08:24;1.03;;;0.93;;
253;SDS011;590;48.772;8.846;2023-02-01T00:10:57;0.70;;;0.63;;
253;SDS011;590;48.772;8.846;2023-02-01T00:13:27;1.10;;;1.00;;
253;SDS011;590;48.772;8.846;2023-02-01T00:16:06;1.10;;;1.10;;
253;SDS011;590;48.772;8.846;2023-02-01T00:18:36;0.70;;;0.70;;
253;SDS011;590;48.772;8.846;2023-02-01T00:21:04;1.17;;;1.10;;
253;SDS011;590;48.772;8.846;2023-02-01T00:23:32;0.60;;;0.57;;
253;SDS011;590;48.772;8.846;2023-02-01T00:26:01;0.83;;;0.77;;
253;SDS011;590;48.772;8.846;2023-02-01T00:28:30;1.10;;;1.00;;
253;SDS011;590;48.772;8.846;2023-02-01T00:30:59;1.30;;;1.20;;
253;SDS011;590;48.772;8.846;2023-02-01T00:33:30;0.97;;;0.87;;
253;SDS011;590;48.772;8.846;2023-02-01T00:36:00;1.13;;;1.03;;
253;SDS011;590;48.772;8.846;2023-02-01T00:38:30;1.10;;;1.00;;
253;SDS011;590;48.772;8.846;2023-02-01T00:41:01;1.03;;;0.93;;
253;SDS011;590;48.772;8.846;2023-02-01T00:43:30;0.90;;;0.80;;
253;SDS011;590;48.772;8.846;2023-02-01T00:45:58;0.97;;;0.90;;
253;SDS011;590;48.772;8.846;2023-02-01T00:48:27;0.80;;;0.80;;
253;SDS011;590;48.772;8.846;2023-02-01T00:50:59;1.10;;;1.00;;
253;SDS011;590;48.772;8.846;2023-02-01T00:53:28;0.90;;;0.80;;
253;SDS011;590;48.772;8.846;2023-02-01T00:55:56;1.27;;;1.10;;
253;SDS011;590;48.772;8.846;2023-02-01T00:58:25;0.90;;;0.80;;
253;SDS011;590;48.772;8.846;2023-02-01T01:01:00;0.83;;;0.80;;
253;SDS011;590;48.772;8.846;2023-02-01T01:03:30;0.90;;;0.80;;
253;SDS011;590;48.772;8.846;2023-02-01T01:06:03;0.93;;;0.90;;
253;SDS011;590;48.772;8.846;2023-02-01T01:08:32;0.83;;;0.77;;
253;SDS011;590;48.772;8.846;2023-02-01T01:11:03;0.77;;;0.67;;
253;SDS011;590;48.772;8.846;2023-02-01T01:13:32;0.90;;;0.80;;
253;SDS011;590;48.772;8.846;2023-02-01T01:16:01;0.87;;;0.63;;
253;SDS011;590;48.772;8.846;2023-02-01T01:18:30;1.00;;;0.83;;
253;SDS011;590;48.772;8.846;2023-02-01T01:20:59;0.80;;;0.70;;
253;SDS011;590;48.772;8.846;2023-02-01T01:23:29;0.90;;;0.83;;
253;SDS011;590;48.772;8.846;2023-02-01T01:25:57;0.93;;;0.87;;
253;SDS011;590;48.772;8.846;2023-02-01T01:28:26;0.90;;;0.70;;
253;SDS011;590;48.772;8.846;2023-02-01T01:30:54;1.00;;;0.90;;
253;SDS011;590;48.772;8.846;2023-02-01T01:33:22;1.00;;;0.90;;
253;SDS011;590;48.772;8.846;2023-02-01T01:35:50;0.90;;;0.80;;
253;SDS011;590;48.772;8.846;2023-02-01T01:38:20;0.53;;;0.50;;
253;SDS011;590;48.772;8.846;2023-02-01T01:40:48;0.83;;;0.83;;
253;SDS011;590;48.772;8.846;2023-02-01T01:43:17;0.93;;;0.90;;
253;SDS011;590;48.772;8.846;2023-02-01T01:45:49;1.00;;;0.90;;
253;SDS011;590;48.772;8.846;2023-02-01T01:48:18;0.80;;;0.60;;
253;SDS011;590;48.772;8.846;2023-02-01T01:50:51;0.70;;;0.60;;
253;SDS011;590;48.772;8.846;2023-02-01T01:53:26;0.77;;;0.67;;
253;SDS011;590;48.772;8.846;2023-02-01T01:55:59;0.70;;;0.60;;
253;SDS011;590;48.772;8.846;2023-02-01T01:58:28;0.73;;;0.70;;
253;SDS011;590;48.772;8.846;2023-02-01T02:01:00;0.50;;;0.50;;
253;SDS011;590;48.772;8.846;2023-02-01T02:03:30;1.20;;;1.10;;
253;SDS011;590;48.772;8.846;2023-02-01T02:06:01;0.60;;;0.57;;
253;SDS011;590;48.772;8.846;2023-02-01T02:08:32;0.70;;;0.60;;
253;SDS011;590;48.772;8.846;2023-02-01T02:11:02;0.77;;;0.70;;
253;SDS011;590;48.772;8.846;2023-02-01T02:13:31;0.87;;;0.80;;
253;SDS011;590;48.772;8.846;2023-02-01T02:16:13;0.50;;;0.50;;
253;SDS011;590;48.772;8.846;2023-02-01T02:22:03;0.50;;;0.50;;
253;SDS011;590;48.772;8.846;2023-02-01T02:24:51;0.80;;;0.73;;
253;SDS011;590;48.772;8.846;2023-02-01T02:27:37;1.00;;;0.80;;
253;SDS011;590;48.772;8.846;2023-02-01T02:30:25;0.70;;;0.60;;
253;SDS011;590;48.772;8.846;2023-02-01T02:36:37;0.90;;;0.83;;
253;SDS011;590;48.772;8.846;2023-02-01T02:39:12;0.60;;;0.53;;
253;SDS011;590;48.772;8.846;2023-02-01T02:41:50;0.50;;;0.50;;
253;SDS011;590;48.772;8.846;2023-02-01T02:44:45;0.57;;;0.53;;
253;SDS011;590;48.772;8.846;2023-02-01T02:47:36;0.50;;;0.50;;
253;SDS011;590;48.772;8.846;2023-02-01T02:50:15;0.63;;;0.57;;
253;SDS011;590;48.772;8.846;2023-02-01T02:53:09;0.80;;;0.70;;
253;SDS011;590;48.772;8.846;2023-02-01T02:56:09;0.50;;;0.50;;
253;SDS011;590;48.772;8.846;2023-02-01T02:58:57;0.60;;;0.50;;
253;SDS011;590;48.772;8.846;2023-02-01T03:01:44;0.50;;;0.40;;
253;SDS011;590;48.772;8.846;2023-02-01T03:04:30;0.50;;;0.50;;
253;SDS011;590;48.772;8.846;2023-02-01T03:07:10;0.50;;;0.50;;
253;SDS011;590;48.772;8.846;2023-02-01T03:09:40;0.70;;;0.60;;
253;SDS011;590;48.772;8.846;2023-02-01T03:12:12;0.67;;;0.60;;
253;SDS011;590;48.772;8.846;2023-02-01T03:15:00;0.57;;;0.50;;
253;SDS011;590;48.772;8.846;2023-02-01T03:17:36;0.63;;;0.50;;
253;SDS011;590;48.772;8.846;2023-02-01T03:20:07;0.70;;;0.70;;
253;SDS011;590;48.772;8.846;2023-02-01T03:22:38;0.70;;;0.60;;
253;SDS011;590;48.772;8.846;2023-02-01T03:25:09;0.60;;;0.50;;
253;SDS011;590;48.772;8.846;2023-02-01T03:27:40;0.63;;;0.50;;
253;SDS011;590;48.772;8.846;2023-02-01T03:30:15;0.50;;;0.50;;
253;SDS011;590;48.772;8.846;2023-02-01T03:32:48;0.50;;;0.40;;
253;SDS011;590;48.772;8.846;2023-02-01T03:35:27;0.53;;;0.50;;
253;SDS011;590;48.772;8.846;2023-02-01T03:38:01;1.10;;;0.67;;
253;SDS011;590;48.772;8.846;2023-02-01T03:40:35;0.97;;;0.53;;
253;SDS011;590;48.772;8.846;2023-02-01T03:43:04;0.60;;;0.40;;
253;SDS011;590;48.772;8.846;2023-02-01T03:45:38;0.60;;;0.50;;
253;SDS011;590;48.772;8.846;2023-02-01T03:48:10;0.73;;;0.70;;
253;SDS011;590;48.772;8.846;2023-02-01T03:50:43;0.70;;;0.50;;
253;SDS011;590;48.772;8.846;2023-02-01T03:53:17;1.07;;;0.60;;
253;SDS011;590;48.772;8.846;2023-02-01T03:55:48;0.57;;;0.57;;
253;SDS011;590;48.772;8.846;2023-02-01T03:58:18;0.80;;;0.67;;
253;SDS011;590;48.772;8.846;2023-02-01T04:00:49;0.83;;;0.70;;
253;SDS011;590;48.772;8.846;2023-02-01T04:03:20;0.63;;;0.43;;
253;SDS011;590;48.772;8.846;2023-02-01T04:05:49;0.50;;;0.40;;
253;SDS011;590;48.772;8.846;2023-02-01T04:08:18;0.60;;;0.60;;
253;SDS011;590;48.772;8.846;2023-02-01T04:10:47;0.50;;;0.50;;
253;SDS011;590;48.772;8.846;2023-02-01T04:13:15;0.73;;;0.50;;
253;SDS011;590;48.772;8.846;2023-02-01T04:15:43;0.60;;;0.40;;
253;SDS011;590;48.772;8.846;2023-02-01T04:18:11;0.50;;;0.40;;
253;SDS011;590;48.772;8.846;2023-02-01T04:20:39;0.57;;;0.50;;
253;SDS011;590;48.772;8.846;2023-02-01T04:23:07;0.63;;;0.50;;
253;SDS011;590;48.772;8.846;2023-02-01T04:25:36;0.70;;;0.50;;
253;SDS011;590;48.772;8.846;2023-02-01T04:28:04;0.70;;;0.57;;
253;SDS011;590;48.772;8.846;2023-02-01T04:30:33;0.50;;;0.50;;
253;SDS011;590;48.772;8.846;2023-02-01T04:33:01;0.53;;;0.53;;
253;SDS011;590;48.772;8.846;2023-02-01T04:35:32;0.50;;;0.50;;
253;SDS011;590;48.772;8.846;2023-02-01T04:38:00;0.60;;;0.60;;
253;SDS011;590;48.772;8.846;2023-02-01T04:40:28;1.00;;;0.50;;
253;SDS011;590;48.772;8.846;2023-02-01T04:42:58;0.67;;;0.60;;
253;SDS011;590;48.772;8.846;2023-02-01T04:45:28;0.67;;;0.60;;
253;SDS011;590;48.772;8.846;2023-02-01T04:47:56;0.50;;;0.40;;
253;SDS011;590;48.772;8.846;2023-02-01T04:50:24;0.50;;;0.40;;
253;SDS011;590;48.772;8.846;2023-02-01T04:52:52;0.60;;;0.60;;
253;SDS011;590;48.772;8.846;2023-02-01T04:55:20;0.50;;;0.40;;
253;SDS011;590;48.772;8.846;2023-02-01T04:57:48;0.70;;;0.60;;
253;SDS011;590;48.772;8.846;2023-02-01T05:00:17;0.87;;;0.60;;
253;SDS011;590;48.772;8.846;2023-02-01T05:02:46;0.60;;;0.40;;
253;SDS011;590;48.772;8.846;2023-02-01T05:05:14;0.60;;;0.60;;
253;SDS011;590;48.772;8.846;2023-02-01T05:07:42;0.70;;;0.50;;
253;SDS011;590;48.772;8.846;2023-02-01T05:10:10;0.63;;;0.57;;
253;SDS011;590;48.772;8.846;2023-02-01T05:12:38;0.70;;;0.60;;
253;SDS011;590;48.772;8.846;2023-02-01T05:15:25;0.70;;;0.53;;
253;SDS011;590;48.772;8.846;2023-02-01T05:17:52;0.80;;;0.50;;
253;SDS011;590;48.772;8.846;2023-02-01T05:20:20;0.70;;;0.60;;
253;SDS011;590;48.772;8.846;2023-02-01T05:22:50;0.40;;;0.40;;
253;SDS011;590;48.772;8.846;2023-02-01T05:25:18;0.50;;;0.37;;
253;SDS011;590;48.772;8.846;2023-02-01T05:27:46;0.80;;;0.70;;
253;SDS011;590;48.772;8.846;2023-02-01T05:30:15;0.97;;;0.63;;
253;SDS011;590;48.772;8.846;2023-02-01T05:32:44;0.70;;;0.70;;
253;SDS011;590;48.772;8.846;2023-02-01T05:35:12;0.60;;;0.50;;
253;SDS011;590;48.772;8.846;2023-02-01T05:37:40;0.60;;;0.50;;
253;SDS011;590;48.772;8.846;2023-02-01T05:40:09;0.70;;;0.60;;
253;SDS011;590;48.772;8.846;2023-02-01T05:42:37;0.50;;;0.50;;
253;SDS011;590;48.772;8.846;2023-02-01T05:45:06;0.70;;;0.60;;
253;SDS011;590;48.772;8.846;2023-02-01T05:47:35;0.80;;;0.60;;
253;SDS011;590;48.772;8.846;2023-02-01T05:50:05;0.60;;;0.50;;
253;SDS011;590;48.772;8.846;2023-02-01T05:52:33;0.60;;;0.40;;
253;SDS011;590;48.772;8.846;2023-02-01T05:55:01;0.60;;;0.50;;
253;SDS011;590;48.772;8.846;2023-02-01T05:57:30;0.57;;;0.40;;
253;SDS011;590;48.772;8.846;2023-02-01T05:59:57;1.43;;;0.50;;
253;SDS011;590;48.772;8.846;2023-02-01T06:02:26;0.50;;;0.50;;
253;SDS011;590;48.772;8.846;2023-02-01T06:04:54;0.50;;;0.50;;
253;SDS011;590;48.772;8.846;2023-02-01T06:07:23;0.60;;;0.50;;
253;SDS011;590;48.772;8.846;2023-02-01T06:09:54;0.60;;;0.57;;
253;SDS011;590;48.772;8.846;2023-02-01T06:12:22;0.50;;;0.40;;
253;SDS011;590;48.772;8.846;2023-02-01T06:14:50;1.07;;;0.60;;
253;SDS011;590;48.772;8.846;2023-02-01T06:17:18;0.97;;;0.50;;
253;SDS011;590;48.772;8.846;2023-02-01T06:19:46;1.07;;;0.83;;
253;SDS011;590;48.772;8.846;2023-02-01T06:22:14;0.50;;;0.50;;
253;SDS011;590;48.772;8.846;2023-02-01T06:24:45;0.77;;;0.70;;
253;SDS011;590;48.772;8.846;2023-02-01T06:27:13;0.50;;;0.50;;
253;SDS011;590;48.772;8.846;2023-02-01T06:29:41;0.60;;;0.53;;
253;SDS011;590;48.772;8.846;2023-02-01T06:32:09;0.70;;;0.70;;
253;SDS011;590;48.772;8.846;2023-02-01T06:34:37;0.60;;;0.60;;
253;SDS011;590;48.772;8.846;2023-02-01T06:37:05;0.87;;;0.73;;
253;SDS011;590;48.772;8.846;2023-02-01T06:39:33;0.63;;;0.60;;
253;SDS011;590;48.772;8.846;2023-02-01T06:42:03;1.00;;;0.90;;
253;SDS011;590;48.772;8.846;2023-02-01T06:44:31;0.80;;;0.73;;
253;SDS011;590;48.772;8.846;2023-02-01T06:46:59;2.53;;;0.90;;
253;SDS011;590;48.772;8.846;2023-02-01T06:49:27;0.90;;;0.80;;
253;SDS011;590;48.772;8.846;2023-02-01T06:51:55;0.73;;;0.60;;
253;SDS011;590;48.772;8.846;2023-02-01T06:54:26;1.00;;;0.70;;
253;SDS011;590;48.772;8.846;2023-02-01T06:56:54;0.70;;;0.50;;
253;SDS011;590;48.772;8.846;2023-02-01T06:59:23;0.70;;;0.60;;
253;SDS011;590;48.772;8.846;2023-02-01T07:01:51;0.77;;;0.70;;
253;SDS011;590;48.772;8.846;2023-02-01T07:04:19;0.90;;;0.80;;
253;SDS011;590;48.772;8.846;2023-02-01T07:06:47;0.93;;;0.90;;
253;SDS011;590;48.772;8.846;2023-02-01T07:09:15;1.23;;;0.93;;
253;SDS011;590;48.772;8.846;2023-02-01T07:11:43;1.00;;;0.90;;
253;SDS011;590;48.772;8.846;2023-02-01T07:14:11;1.07;;;0.93;;
253;SDS011;590;48.772;8.846;2023-02-01T07:16:40;1.17;;;1.10;;
253;SDS011;590;48.772;8.846;2023-02-01T07:19:08;1.20;;;0.90;;
253;SDS011;590;48.772;8.846;2023-02-01T07:21:36;1.10;;;0.77;;
253;SDS011;590;48.772;8.846;2023-02-01T07:24:04;1.37;;;1.07;;
253;SDS011;590;48.772;8.846;2023-02-01T07:26:32;0.93;;;0.90;;
253;SDS011;590;48.772;8.846;2023-02-01T07:29:00;0.90;;;0.80;;
253;SDS011;590;48.772;8.846;2023-02-01T07:31:28;0.77;;;0.60;;
253;SDS011;590;48.772;8.846;2023-02-01T07:33:58;1.30;;;0.93;;
253;SDS011;590;48.772;8.846;2023-02-01T07:36:27;1.27;;;1.20;;
253;SDS011;590;48.772;8.846;2023-02-01T07:38:55;0.97;;;0.87;;
253;SDS011;590;48.772;8.846;2023-02-01T07:41:25;0.97;;;0.93;;
253;SDS011;590;48.772;8.846;2023-02-01T07:43:53;1.00;;;0.87;;
253;SDS011;590;48.772;8.846;2023-02-01T07:46:21;1.10;;;1.00;;
253;SDS011;590;48.772;8.846;2023-02-01T07:48:50;1.00;;;0.90;;
253;SDS011;590;48.772;8.846;2023-02-01T07:51:19;1.33;;;0.90;;
253;SDS011;590;48.772;8.846;2023-02-01T07:53:47;1.17;;;0.80;;
253;SDS011;590;48.772;8.846;2023-02-01T07:56:16;1.13;;;1.10;;
253;SDS011;590;48.772;8.846;2023-02-01T07:58:46;1.10;;;1.00;;
253;SDS011;590;48.772;8.846;2023-02-01T08:01:15;1.20;;;1.10;;
253;SDS011;590;48.772;8.846;2023-02-01T08:03:47;1.10;;;0.90;;
253;SDS011;590;48.772;8.846;2023-02-01T08:06:16;1.37;;;1.20;;
253;SDS011;590;48.772;8.846;2023-02-01T08:08:47;1.00;;;0.90;;
253;SDS011;590;48.772;8.846;2023-02-01T08:11:16;1.03;;;0.93;;
253;SDS011;590;48.772;8.846;2023-02-01T08:13:44;1.03;;;0.97;;
253;SDS011;590;48.772;8.846;2023-02-01T08:16:13;1.03;;;0.80;;
253;SDS011;590;48.772;8.846;2023-02-01T08:18:42;1.30;;;1.20;;
253;SDS011;590;48.772;8.846;2023-02-01T08:21:11;1.50;;;1.20;;
253;SDS011;590;48.772;8.846;2023-02-01T08:23:41;1.83;;;1.20;;
253;SDS011;590;48.772;8.846;2023-02-01T08:26:12;1.47;;;0.90;;
253;SDS011;590;48.772;8.846;2023-02-01T08:28:42;1.30;;;0.97;;
253;SDS011;590;48.772;8.846;2023-02-01T08:31:13;1.10;;;0.83;;
253;SDS011;590;48.772;8.846;2023-02-01T08:33:42;1.27;;;1.03;;
253;SDS011;590;48.772;8.846;2023-02-01T08:36:11;1.20;;;1.20;;
253;SDS011;590;48.772;8.846;2023-02-01T08:38:39;1.93;;;1.27;;
253;SDS011;590;48.772;8.846;2023-02-01T08:41:07;1.50;;;1.27;;
253;SDS011;590;48.772;8.846;2023-02-01T08:43:38;1.50;;;1.13;;
253;SDS011;590;48.772;8.846;2023-02-01T08:46:06;1.00;;;0.77;;
253;SDS011;590;48.772;8.846;2023-02-01T08:48:35;3.23;;;1.53;;
253;SDS011;590;48.772;8.846;2023-02-01T08:51:04;2.27;;;1.17;;
253;SDS011;590;48.772;8.846;2023-02-01T08:53:34;1.33;;;1.23;;
253;SDS011;590;48.772;8.846;2023-02-01T08:56:03;1.17;;;1.10;;
253;SDS011;590;48.772;8.846;2023-02-01T08:58:32;1.20;;;1.03;;
253;SDS011;590;48.772;8.846;2023-02-01T09:01:03;1.33;;;1.20;;
253;SDS011;590;48.772;8.846;2023-02-01T09:03:32;1.10;;;1.00;;
253;SDS011;590;48.772;8.846;2023-02-01T09:06:00;2.10;;;1.53;;
253;SDS011;590;48.772;8.846;2023-02-01T09:08:28;1.40;;;1.30;;
253;SDS011;590;48.772;8.846;2023-02-01T09:11:00;1.30;;;1.10;;
253;SDS011;590;48.772;8.846;2023-02-01T09:13:29;1.47;;;1.40;;
253;SDS011;590;48.772;8.846;2023-02-01T09:27:49;1.10;;;1.00;;
253;SDS011;590;48.772;8.846;2023-02-01T09:30:18;1.50;;;1.13;;
253;SDS011;590;48.772;8.846;2023-02-01T09:32:58;3.03;;;1.57;;
253;SDS011;590;48.772;8.846;2023-02-01T09:35:26;1.70;;;1.30;;
253;SDS011;590;48.772;8.846;2023-02-01T09:38:13;2.10;;;1.37;;
253;SDS011;590;48.772;8.846;2023-02-01T09:40:48;1.70;;;1.40;;
253;SDS011;590;48.772;8.846;2023-02-01T09:43:21;1.20;;;1.13;;
253;SDS011;590;48.772;8.846;2023-02-01T09:46:07;2.40;;;1.50;;
253;SDS011;590;48.772;8.846;2023-02-01T09:48:47;1.60;;;1.10;;
253;SDS011;590;48.772;8.846;2023-02-01T09:51:21;1.43;;;1.37;;
253;SDS011;590;48.772;8.846;2023-02-01T09:53:55;1.33;;;1.30;;
253;SDS011;590;48.772;8.846;2023-02-01T09:56:29;2.80;;;1.97;;
253;SDS011;590;48.772;8.846;2023-02-01T09:59:08;1.50;;;1.40;;
253;SDS011;590;48.772;8.846;2023-02-01T10:01:43;1.53;;;1.17;;
253;SDS011;590;48.772;8.846;2023-02-01T10:04:13;2.30;;;1.50;;
253;SDS011;590;48.772;8.846;2023-02-01T10:07:05;1.73;;;1.17;;
253;SDS011;590;48.772;8.846;2023-02-01T10:09:50;1.50;;;1.40;;
253;SDS011;590;48.772;8.846;2023-02-01T10:12:57;1.30;;;1.20;;
253;SDS011;590;48.772;8.846;2023-02-01T10:15:46;3.27;;;1.77;;
253;SDS011;590;48.772;8.846;2023-02-01T10:18:40;1.80;;;1.63;;
253;SDS011;590;48.772;8.846;2023-02-01T10:24:44;1.93;;;1.27;;
253;SDS011;590;48.772;8.846;2023-02-01T10:27:24;1.50;;;1.23;;
253;SDS011;590;48.772;8.846;2023-02-01T10:29:57;1.73;;;1.00;;
253;SDS011;590;48.772;8.846;2023-02-01T10:32:30;2.30;;;2.03;;
253;SDS011;590;48.772;8.846;2023-02-01T10:35:01;1.90;;;1.77;;
253;SDS011;590;48.772;8.846;2023-02-01T10:37:37;2.20;;;1.40;;
253;SDS011;590;48.772;8.846;2023-02-01T10:40:12;2.63;;;1.30;;
253;SDS011;590;48.772;8.846;2023-02-01T10:42:44;2.63;;;1.90;;
253;SDS011;590;48.772;8.846;2023-02-01T10:45:14;1.53;;;1.20;;
253;SDS011;590;48.772;8.846;2023-02-01T10:47:50;2.50;;;1.40;;
253;SDS011;590;48.772;8.846;2023-02-01T10:50:23;1.57;;;1.47;;
253;SDS011;590;48.772;8.846;2023-02-01T10:53:02;2.03;;;1.10;;
253;SDS011;590;48.772;8.846;2023-02-01T10:55:34;2.07;;;1.40;;
253;SDS011;590;48.772;8.846;2023-02-01T10:58:07;2.23;;;1.23;;
253;SDS011;590;48.772;8.846;2023-02-01T11:01:07;2.37;;;1.67;;
253;SDS011;590;48.772;8.846;2023-02-01T11:03:58;1.93;;;1.50;;
253;SDS011;590;48.772;8.846;2023-02-01T11:06:28;1.47;;;1.23;;
253;SDS011;590;48.772;8.846;2023-02-01T11:09:18;1.33;;;1.23;;
253;SDS011;590;48.772;8.846;2023-02-01T11:11:55;1.20;;;1.10;;
253;SDS011;590;48.772;8.846;2023-02-01T11:14:50;3.33;;;1.50;;
253;SDS011;590;48.772;8.846;2023-02-01T11:17:24;1.80;;;1.43;;
253;SDS011;590;48.772;8.846;2023-02-01T11:20:00;1.37;;;1.03;;
253;SDS011;590;48.772;8.846;2023-02-01T11:22:30;4.67;;;1.43;;
253;SDS011;590;48.772;8.846;2023-02-01T11:25:14;1.47;;;1.20;;
253;SDS011;590;48.772;8.846;2023-02-01T11:27:49;2.20;;;1.70;;
253;SDS011;590;48.772;8.846;2023-02-01T11:30:30;3.10;;;1.50;;
253;SDS011;590;48.772;8.846;2023-02-01T11:33:09;2.97;;;1.53;;
253;SDS011;590;48.772;8.846;2023-02-01T11:35:43;1.77;;;1.70;;
253;SDS011;590;48.772;8.846;2023-02-01T11:38:17;1.20;;;1.13;;
253;SDS011;590;48.772;8.846;2023-02-01T11:40:49;1.60;;;1.40;;
253;SDS011;590;48.772;8.846;2023-02-01T11:43:23;1.73;;;1.37;;
253;SDS011;590;48.772;8.846;2023-02-01T11:45:54;2.17;;;1.40;;
253;SDS011;590;48.772;8.846;2023-02-01T11:48:41;1.50;;;1.20;;
253;SDS011;590;48.772;8.846;2023-02-01T11:51:18;1.20;;;0.90;;
253;SDS011;590;48.772;8.846;2023-02-01T11:54:11;2.57;;;1.43;;
253;SDS011;590;48.772;8.846;2023-02-01T11:57:07;3.07;;;1.33;;
253;SDS011;590;48.772;8.846;2023-02-01T11:59:56;2.50;;;1.43;;
253;SDS011;590;48.772;8.846;2023-02-01T12:03:02;1.67;;;1.40;;
253;SDS011;590;48.772;8.846;2023-02-01T12:05:54;1.80;;;1.50;;
253;SDS011;590;48.772;8.846;2023-02-01T12:08:34;2.07;;;1.80;;
253;SDS011;590;48.772;8.846;2023-02-01T12:11:24;2.83;;;1.33;;
253;SDS011;590;48.772;8.846;2023-02-01T12:14:14;1.70;;;1.47;;
253;SDS011;590;48.772;8.846;2023-02-01T12:17:18;1.33;;;1.17;;
253;SDS011;590;48.772;8.846;2023-02-01T12:20:14;2.37;;;1.47;;
253;SDS011;590;48.772;8.846;2023-02-01T12:23:16;1.43;;;1.33;;
253;SDS011;590;48.772;8.846;2023-02-01T12:26:00;1.80;;;1.50;;
253;SDS011;590;48.772;8.846;2023-02-01T12:28:54;2.73;;;1.40;;
253;SDS011;590;48.772;8.846;2023-02-01T12:32:08;1.10;;;0.97;;
253;SDS011;590;48.772;8.846;2023-02-01T12:38:03;1.60;;;1.40;;
253;SDS011;590;48.772;8.846;2023-02-01T12:40:47;4.80;;;1.60;;
253;SDS011;590;48.772;8.846;2023-02-01T12:43:29;1.40;;;1.30;;
253;SDS011;590;48.772;8.846;2023-02-01T12:46:06;1.53;;;1.43;;
253;SDS011;590;48.772;8.846;2023-02-01T12:48:45;2.00;;;1.57;;
253;SDS011;590;48.772;8.846;2023-02-01T12:51:24;2.03;;;1.37;;
253;SDS011;590;48.772;8.846;2023-02-01T12:56:57;1.97;;;1.37;;
253;SDS011;590;48.772;8.846;2023-02-01T12:59:47;2.83;;;1.67;;
253;SDS011;590;48.772;8.846;2023-02-01T13:02:28;3.47;;;1.13;;
253;SDS011;590;48.772;8.846;2023-02-01T13:05:14;1.60;;;1.50;;
253;SDS011;590;48.772;8.846;2023-02-01T13:07:46;3.00;;;1.90;;
253;SDS011;590;48.772;8.846;2023-02-01T13:10:19;3.43;;;1.43;;
253;SDS011;590;48.772;8.846;2023-02-01T13:12:53;1.93;;;1.30;;
253;SDS011;590;48.772;8.846;2023-02-01T13:15:28;1.33;;;1.23;;
253;SDS011;590;48.772;8.846;2023-02-01T13:18:04;2.40;;;1.50;;
253;SDS011;590;48.772;8.846;2023-02-01T13:20:42;1.10;;;1.10;;
253;SDS011;590;48.772;8.846;2023-02-01T13:23:21;1.80;;;1.43;;
253;SDS011;590;48.772;8.846;2023-02-01T13:25:53;2.30;;;1.70;;
253;SDS011;590;48.772;8.846;2023-02-01T13:28:24;1.50;;;1.37;;
253;SDS011;590;48.772;8.846;2023-02-01T13:31:00;3.13;;;1.70;;
253;SDS011;590;48.772;8.846;2023-02-01T13:33:45;2.27;;;1.47;;
253;SDS011;590;48.772;8.846;2023-02-01T13:36:45;1.70;;;1.53;;
253;SDS011;590;48.772;8.846;2023-02-01T13:39:34;1.97;;;1.73;;
253;SDS011;590;48.772;8.846;2023-02-01T13:42:17;1.50;;;1.30;;
253;SDS011;590;48.772;8.846;2023-02-01T13:44:56;2.30;;;1.37;;
253;SDS011;590;48.772;8.846;2023-02-01T13:47:30;1.80;;;1.27;;
253;SDS011;590;48.772;8.846;2023-02-01T13:50:01;1.73;;;1.47;;
253;SDS011;590;48.772;8.846;2023-02-01T13:52:36;2.40;;;1.63;;
253;SDS011;590;48.772;8.846;2023-02-01T13:55:22;1.13;;;1.07;;
253;SDS011;590;48.772;8.846;2023-02-01T13:58:02;2.17;;;1.50;;
253;SDS011;590;48.772;8.846;2023-02-01T14:00:49;2.20;;;1.70;;
253;SDS011;590;48.772;8.846;2023-02-01T14:03:42;3.17;;;1.53;;
253;SDS011;590;48.772;8.846;2023-02-01T14:15:19;2.17;;;1.50;;
253;SDS011;590;48.772;8.846;2023-02-01T14:17:53;1.73;;;1.30;;
253;SDS011;590;48.772;8.846;2023-02-01T14:23:38;2.37;;;1.47;;
253;SDS011;590;48.772;8.846;2023-02-01T14:26:43;3.33;;;1.73;;
253;SDS011;590;48.772;8.846;2023-02-01T14:29:21;3.00;;;1.47;;
253;SDS011;590;48.772;8.846;2023-02-01T14:31:54;2.40;;;1.43;;
253;SDS011;590;48.772;8.846;2023-02-01T14:34:35;1.33;;;1.03;;
253;SDS011;590;48.772;8.846;2023-02-01T14:37:11;1.30;;;1.13;;
253;SDS011;590;48.772;8.846;2023-02-01T14:39:59;2.40;;;1.30;;
253;SDS011;590;48.772;8.846;2023-02-01T14:42:32;2.40;;;1.30;;
253;SDS011;590;48.772;8.846;2023-02-01T14:51:15;1.50;;;1.23;;
253;SDS011;590;48.772;8.846;2023-02-01T14:53:58;2.00;;;1.50;;
253;SDS011;590;48.772;8.846;2023-02-01T14:56:27;1.77;;;1.47;;
253;SDS011;590;48.772;8.846;2023-02-01T14:59:08;3.10;;;1.33;;
253;SDS011;590;48.772;8.846;2023-02-01T15:02:00;1.33;;;1.23;;
253;SDS011;590;48.772;8.846;2023-02-01T15:05:00;2.00;;;1.20;;
253;SDS011;590;48.772;8.846;2023-02-01T15:08:15;1.57;;;1.40;;
253;SDS011;590;48.772;8.846;2023-02-01T15:11:16;2.47;;;1.63;;
253;SDS011;590;48.772;8.846;2023-02-01T15:13:47;2.23;;;1.50;;
253;SDS011;590;48.772;8.846;2023-02-01T15:16:22;4.60;;;1.70;;
253;SDS011;590;48.772;8.846;2023-02-01T15:19:14;1.80;;;1.50;;
253;SDS011;590;48.772;8.846;2023-02-01T15:22:04;3.60;;;1.90;;
253;SDS011;590;48.772;8.846;2023-02-01T15:24:51;2.37;;;1.60;;
253;SDS011;590;48.772;8.846;2023-02-01T15:42:20;1.40;;;1.23;;
253;SDS011;590;48.772;8.846;2023-02-01T15:45:44;2.20;;;1.33;;
253;SDS011;590;48.772;8.846;2023-02-01T15:48:46;1.63;;;1.30;;
253;SDS011;590;48.772;8.846;2023-02-01T15:51:27;2.43;;;1.30;;
253;SDS011;590;48.772;8.846;2023-02-01T15:53:59;2.43;;;1.20;;
253;SDS011;590;48.772;8.846;2023-02-01T15:56:32;2.00;;;1.57;;
253;SDS011;590;48.772;8.846;2023-02-01T15:59:15;2.80;;;1.80;;
253;SDS011;590;48.772;8.846;2023-02-01T16:01:45;3.80;;;1.83;;
253;SDS011;590;48.772;8.846;2023-02-01T16:04:21;1.07;;;1.00;;
253;SDS011;590;48.772;8.846;2023-02-01T16:06:52;2.33;;;1.57;;
253;SDS011;590;48.772;8.846;2023-02-01T16:09:57;1.83;;;1.23;;
253;SDS011;590;48.772;8.846;2023-02-01T16:13:02;2.00;;;1.43;;
253;SDS011;590;48.772;8.846;2023-02-01T16:16:04;4.07;;;1.80;;
253;SDS011;590;48.772;8.846;2023-02-01T16:19:04;1.73;;;1.60;;
253;SDS011;590;48.772;8.846;2023-02-01T16:21:38;1.57;;;1.57;;
253;SDS011;590;48.772;8.846;2023-02-01T16:24:06;1.73;;;1.60;;
253;SDS011;590;48.772;8.846;2023-02-01T16:26:36;2.80;;;2.00;;
253;SDS011;590;48.772;8.846;2023-02-01T16:29:12;2.10;;;1.53;;
253;SDS011;590;48.772;8.846;2023-02-01T16:31:44;1.77;;;1.70;;
253;SDS011;590;48.772;8.846;2023-02-01T16:34:13;2.30;;;1.90;;
253;SDS011;590;48.772;8.846;2023-02-01T16:37:03;2.90;;;1.67;;
253;SDS011;590;48.772;8.846;2023-02-01T16:39:46;2.23;;;2.10;;
253;SDS011;590;48.772;8.846;2023-02-01T16:42:25;1.40;;;1.30;;
253;SDS011;590;48.772;8.846;2023-02-01T16:44:57;2.90;;;1.70;;
253;SDS011;590;48.772;8.846;2023-02-01T16:47:27;2.70;;;2.03;;
253;SDS011;590;48.772;8.846;2023-02-01T16:49:55;1.80;;;1.70;;
253;SDS011;590;48.772;8.846;2023-02-01T16:52:24;3.57;;;1.90;;
253;SDS011;590;48.772;8.846;2023-02-01T16:55:08;3.17;;;1.90;;
253;SDS011;590;48.772;8.846;2023-02-01T16:57:45;1.73;;;1.70;;
253;SDS011;590;48.772;8.846;2023-02-01T17:00:14;3.10;;;2.00;;
253;SDS011;590;48.772;8.846;2023-02-01T17:02:52;2.07;;;1.50;;
253;SDS011;590;48.772;8.846;2023-02-01T17:05:20;2.30;;;1.60;;
253;SDS011;590;48.772;8.846;2023-02-01T17:07:49;1.73;;;1.60;;
253;SDS011;590;48.772;8.846;2023-02-01T17:10:20;2.73;;;2.00;;
253;SDS011;590;48.772;8.846;2023-02-01T17:13:00;2.00;;;1.50;;
253;SDS011;590;48.772;8.846;2023-02-01T17:15:31;2.37;;;1.80;;
253;SDS011;590;48.772;8.846;2023-02-01T17:18:07;2.00;;;1.67;;
253;SDS011;590;48.772;8.846;2023-02-01T17:20:46;2.03;;;1.50;;
253;SDS011;590;48.772;8.846;2023-02-01T17:23:20;2.30;;;1.60;;
253;SDS011;590;48.772;8.846;2023-02-01T17:25:48;1.80;;;1.60;;
253;SDS011;590;48.772;8.846;2023-02-01T17:28:16;2.20;;;1.53;;
253;SDS011;590;48.772;8.846;2023-02-01T17:30:44;2.67;;;1.77;;
253;SDS011;590;48.772;8.846;2023-02-01T17:33:19;2.40;;;1.77;;
253;SDS011;590;48.772;8.846;2023-02-01T17:35:50;2.80;;;1.60;;